createdAt,value
2022-08-01T00:00:09.760Z,22.58
2022-08-01T00:02:40.912Z,22.43
2022-08-01T00:05:09.718Z,22.35
2022-08-01T00:07:36.563Z,22.19
2022-08-01T00:10:08.457Z,22.16
2022-08-01T00:12:35.480Z,22.08
2022-08-01T00:15:02.226Z,22.00
2022-08-01T00:17:29.007Z,21.85
2022-08-01T00:19:55.797Z,21.76
2022-08-01T00:22:22.509Z,21.28
2022-08-01T00:24:49.376Z,21.25
2022-08-01T00:27:16.307Z,20.77
2022-08-01T00:30:10.686Z,21.13
2022-08-01T00:32:32.517Z,21.32
2022-08-01T00:34:59.348Z,21.36
2022-08-01T00:37:26.135Z,21.45
2022-08-01T00:39:52.899Z,21.51
2022-08-01T00:42:20.158Z,21.38
2022-08-01T00:44:48.265Z,21.30
2022-08-01T00:47:15.144Z,21.35
2022-08-01T00:49:42.097Z,20.98
2022-08-01T00:52:10.038Z,21.00
2022-08-01T00:54:37.075Z,20.53
2022-08-01T00:57:04.666Z,20.71
2022-08-01T00:59:31.630Z,20.68
2022-08-01T01:01:58.956Z,20.72
2022-08-01T01:04:25.885Z,20.92
2022-08-01T01:07:02.628Z,21.04
2022-08-01T01:09:53.455Z,20.95
2022-08-01T01:12:37.330Z,20.91
2022-08-01T01:15:19.106Z,20.85
2022-08-01T01:17:51.304Z,20.75
2022-08-01T01:20:21.637Z,20.52
2022-08-01T01:22:54.025Z,20.62
2022-08-01T01:25:42.798Z,20.64
2022-08-01T01:28:15.468Z,20.77
2022-08-01T01:30:45.795Z,20.87
2022-08-01T01:33:14.975Z,20.71
2022-08-01T01:35:46.505Z,20.67
2022-08-01T01:38:19.996Z,20.52
2022-08-01T01:40:49.084Z,20.76
2022-08-01T01:43:17.846Z,20.56
2022-08-01T01:45:47.235Z,20.76
2022-08-01T01:48:20.696Z,20.88
2022-08-01T01:50:49.208Z,20.68
2022-08-01T01:53:19.695Z,20.42
2022-08-01T01:55:50.279Z,20.23
2022-08-01T01:58:18.658Z,20.22
2022-08-01T02:00:48.157Z,20.22
2022-08-01T02:03:18.798Z,20.20
2022-08-01T02:05:46.665Z,19.99
2022-08-01T02:08:16.396Z,20.09
2022-08-01T02:11:03.759Z,20.16
2022-08-01T02:13:33.907Z,20.14
2022-08-01T02:16:01.987Z,20.39
2022-08-01T02:18:29.368Z,20.32
2022-08-01T02:20:58.965Z,20.30
2022-08-01T02:23:33.337Z,20.52
2022-08-01T02:26:09.313Z,20.26
2022-08-01T02:29:06.977Z,20.18
2022-08-01T02:31:39.770Z,20.20
2022-08-01T02:34:10.470Z,20.28
2022-08-01T02:36:38.390Z,20.43
2022-08-01T02:39:10.506Z,20.35
2022-08-01T02:41:48.823Z,20.37
2022-08-01T02:44:26.229Z,20.26
2022-08-01T02:46:58.710Z,20.28
2022-08-01T02:49:28.239Z,20.37
2022-08-01T02:51:57.108Z,20.31
2022-08-01T02:54:25.666Z,20.27
2022-08-01T02:56:53.982Z,20.29
2022-08-01T02:59:26.891Z,20.37
2022-08-01T03:01:56.955Z,20.13
2022-08-01T03:04:25.590Z,20.15
2022-08-01T03:06:55.539Z,20.29
2022-08-01T03:09:24.118Z,20.33
2022-08-01T03:11:52.271Z,20.05
2022-08-01T03:14:21.377Z,19.78
2022-08-01T03:16:52.777Z,19.89
2022-08-01T03:19:23.947Z,19.84
2022-08-01T03:21:51.951Z,19.84
2022-08-01T03:24:20.764Z,19.99
2022-08-01T03:26:48.907Z,19.62
2022-08-01T03:29:21.039Z,19.54
2022-08-01T03:31:49.204Z,19.49
2022-08-01T03:34:17.626Z,19.56
2022-08-01T03:37:08.266Z,19.61
2022-08-01T03:39:41.117Z,19.45
2022-08-01T03:42:15.243Z,19.66
2022-08-01T03:44:45.757Z,19.63
2022-08-01T03:47:13.940Z,19.61
2022-08-01T03:49:45.977Z,19.41
2022-08-01T03:52:13.679Z,19.62
2022-08-01T03:54:47.596Z,19.61
2022-08-01T03:57:34.841Z,19.50
2022-08-01T04:00:03.306Z,19.78
2022-08-01T04:02:30.648Z,19.74
2022-08-01T04:04:57.498Z,19.65
2022-08-01T04:07:26.825Z,19.49
2022-08-01T04:09:54.068Z,19.37
2022-08-01T04:12:21.469Z,19.51
2022-08-01T04:14:48.778Z,20.04
2022-08-01T04:17:16.246Z,20.49
2022-08-01T04:19:43.772Z,20.99
2022-08-01T04:22:16.674Z,21.63
2022-08-01T04:24:54.496Z,22.48
2022-08-01T04:27:49.743Z,23.07
2022-08-01T04:30:21.217Z,23.74
2022-08-01T04:32:49.026Z,24.42
2022-08-01T04:35:22.930Z,24.88
2022-08-01T04:38:06.803Z,25.08
2022-08-01T04:40:35.721Z,25.45
2022-08-01T04:43:02.987Z,25.66
2022-08-01T04:45:30.372Z,25.75
2022-08-01T04:47:58.916Z,25.69
2022-08-01T04:50:26.048Z,25.74
2022-08-01T04:52:52.906Z,25.79
2022-08-01T04:55:20.171Z,25.85
2022-08-01T04:57:48.088Z,26.34
2022-08-01T05:00:17.684Z,26.68
2022-08-01T05:02:44.760Z,27.06
2022-08-01T05:05:11.630Z,27.29
2022-08-01T05:07:44.941Z,26.95
2022-08-01T05:10:12.550Z,26.29
2022-08-01T05:12:39.318Z,25.97
2022-08-01T05:15:11.801Z,25.74
2022-08-01T05:17:45.419Z,25.73
2022-08-01T05:20:13.029Z,25.40
2022-08-01T05:22:40.177Z,25.75
2022-08-01T05:25:07.601Z,25.85
2022-08-01T05:27:39.387Z,25.57
2022-08-01T05:30:09.659Z,25.36
2022-08-01T05:32:37.336Z,25.09
2022-08-01T05:35:04.598Z,25.12
2022-08-01T05:37:31.599Z,24.86
2022-08-01T05:39:58.346Z,24.58
2022-08-01T05:42:25.692Z,24.74
2022-08-01T05:44:52.656Z,24.86
2022-08-01T05:47:19.983Z,24.75
2022-08-01T05:49:47.178Z,24.58
2022-08-01T05:52:14.226Z,24.49
2022-08-01T05:54:41.216Z,24.60
2022-08-01T05:57:08.138Z,24.49
2022-08-01T05:59:35.046Z,24.60
2022-08-01T06:02:02.293Z,24.52
2022-08-01T06:04:29.196Z,24.64
2022-08-01T06:06:56.068Z,24.74
2022-08-01T06:09:22.948Z,24.75
2022-08-01T06:11:49.867Z,24.81
2022-08-01T06:14:16.912Z,24.63
2022-08-01T06:16:43.716Z,24.89
2022-08-01T06:19:10.676Z,24.97
2022-08-01T06:21:37.479Z,25.23
2022-08-01T06:24:04.927Z,25.48
2022-08-01T06:26:32.407Z,25.63
2022-08-01T06:28:59.368Z,25.97
2022-08-01T06:31:29.331Z,26.27
2022-08-01T06:33:58.595Z,26.56
2022-08-01T06:36:26.767Z,26.67
2022-08-01T06:38:53.708Z,26.92
2022-08-01T06:41:20.495Z,27.37
2022-08-01T06:43:47.276Z,27.54
2022-08-01T06:46:14.093Z,27.62
2022-08-01T06:48:41.158Z,27.87
2022-08-01T06:51:14.557Z,28.02
2022-08-01T06:53:41.447Z,27.95
2022-08-01T06:56:10.825Z,28.18
2022-08-01T06:58:37.759Z,28.46
2022-08-01T07:01:08.893Z,28.64
2022-08-01T07:03:53.013Z,29.01
2022-08-01T07:06:21.268Z,29.35
2022-08-01T07:08:48.090Z,29.36
2022-08-01T07:11:14.968Z,29.51
2022-08-01T07:13:45.557Z,29.61
2022-08-01T07:16:14.076Z,29.93
2022-08-01T07:18:41.138Z,30.22
2022-08-01T07:21:16.711Z,29.98
2022-08-01T07:23:55.872Z,29.98
2022-08-01T07:26:23.436Z,30.04
2022-08-01T07:28:50.399Z,30.39
2022-08-01T07:31:17.431Z,30.65
2022-08-01T07:33:48.788Z,30.85
2022-08-01T07:36:19.925Z,31.30
2022-08-01T07:38:47.826Z,31.27
2022-08-01T07:41:15.276Z,31.33
2022-08-01T07:43:49.314Z,31.01
2022-08-01T07:46:20.723Z,31.03
2022-08-01T07:48:47.728Z,30.99
2022-08-01T07:51:14.857Z,31.34
2022-08-01T07:53:41.851Z,31.08
2022-08-01T07:56:08.801Z,31.37
2022-08-01T07:58:35.798Z,31.33
2022-08-01T08:01:03.730Z,31.66
2022-08-01T08:03:30.729Z,31.83
2022-08-01T08:06:00.128Z,31.96
2022-08-01T08:08:28.586Z,32.48
2022-08-01T08:10:55.468Z,32.29
2022-08-01T08:13:22.907Z,32.61
2022-08-01T08:15:51.163Z,32.67
2022-08-01T08:18:18.105Z,32.30
2022-08-01T08:20:45.284Z,31.94
2022-08-01T08:23:41.838Z,31.66
2022-08-01T08:26:10.935Z,31.76
2022-08-01T08:28:37.830Z,31.94
2022-08-01T08:31:04.787Z,32.00
2022-08-01T08:33:32.458Z,32.30
2022-08-01T08:35:59.631Z,32.39
2022-08-01T08:38:30.111Z,32.54
2022-08-01T08:40:58.407Z,32.73
2022-08-01T08:43:27.396Z,32.83
2022-08-01T08:45:59.303Z,33.05
2022-08-01T08:48:28.197Z,32.61
2022-08-01T08:50:57.014Z,33.30
2022-08-01T08:53:24.520Z,33.72
2022-08-01T08:56:02.337Z,32.70
2022-08-01T08:58:31.572Z,32.68
2022-08-01T09:00:59.877Z,32.73
2022-08-01T09:03:27.122Z,33.23
2022-08-01T09:05:54.246Z,33.59
2022-08-01T09:08:21.057Z,33.86
2022-08-01T09:10:48.018Z,33.59
2022-08-01T09:13:21.852Z,33.60
2022-08-01T09:15:51.656Z,34.05
2022-08-01T09:18:33.325Z,33.56
2022-08-01T09:21:12.114Z,34.28
2022-08-01T09:23:54.360Z,34.38
2022-08-01T09:26:38.203Z,35.54
2022-08-01T09:29:10.301Z,35.51
2022-08-01T09:31:47.597Z,34.30
2022-08-01T09:34:19.976Z,34.80
2022-08-01T09:36:54.249Z,34.52
2022-08-01T09:39:23.883Z,34.24
2022-08-01T09:41:51.446Z,35.11
2022-08-01T09:44:42.588Z,34.70
2022-08-01T09:47:10.629Z,34.43
2022-08-01T09:49:51.999Z,34.56
2022-08-01T09:52:29.027Z,34.35
2022-08-01T09:55:02.666Z,34.97
2022-08-01T09:57:31.010Z,33.43
2022-08-01T10:00:01.488Z,34.00
2022-08-01T10:02:30.337Z,35.75
2022-08-01T10:05:03.254Z,36.58
2022-08-01T10:07:42.966Z,36.93
2022-08-01T10:10:17.582Z,36.22
2022-08-01T10:12:45.708Z,35.62
2022-08-01T10:15:24.888Z,35.76
2022-08-01T10:18:16.053Z,35.65
2022-08-01T10:20:44.407Z,35.98
2022-08-01T10:23:13.172Z,35.78
2022-08-01T10:25:47.235Z,36.04
2022-08-01T10:28:23.822Z,35.89
2022-08-01T10:30:53.321Z,36.00
2022-08-01T10:33:50.653Z,35.86
2022-08-01T10:36:11.675Z,35.22
2022-08-01T10:38:40.937Z,35.69
2022-08-01T10:41:08.797Z,34.68
2022-08-01T10:43:36.925Z,35.61
2022-08-01T10:46:05.890Z,35.76
2022-08-01T10:48:43.444Z,35.57
2022-08-01T10:51:17.777Z,35.43
2022-08-01T10:53:54.888Z,35.87
2022-08-01T10:56:26.930Z,36.51
2022-08-01T10:59:06.339Z,36.89
2022-08-01T11:01:38.959Z,36.91
2022-08-01T11:04:17.595Z,37.45
2022-08-01T11:06:53.078Z,37.75
2022-08-01T11:09:37.259Z,37.78
2022-08-01T11:12:24.389Z,35.92
2022-08-01T11:15:02.556Z,35.55
2022-08-01T11:17:37.625Z,36.14
2022-08-01T11:20:09.790Z,36.24
2022-08-01T11:23:02.078Z,36.34
2022-08-01T11:26:04.579Z,36.59
2022-08-01T11:28:35.193Z,36.67
2022-08-01T11:31:11.667Z,36.99
2022-08-01T11:33:46.268Z,36.98
2022-08-01T11:36:14.451Z,37.51
2022-08-01T11:39:14.677Z,37.51
2022-08-01T11:41:42.740Z,38.01
2022-08-01T11:44:15.133Z,38.29
2022-08-01T11:47:09.366Z,37.49
2022-08-01T11:49:51.833Z,38.03
2022-08-01T11:52:42.148Z,36.98
2022-08-01T11:55:11.501Z,36.59
2022-08-01T11:57:39.725Z,35.97
2022-08-01T12:00:15.307Z,36.08
2022-08-01T12:02:45.831Z,36.27
2022-08-01T12:05:16.134Z,37.05
2022-08-01T12:07:45.987Z,37.14
2022-08-01T12:10:18.116Z,37.61
2022-08-01T12:12:49.796Z,37.67
2022-08-01T12:15:17.527Z,37.57
2022-08-01T12:17:58.403Z,37.19
2022-08-01T12:20:35.999Z,36.75
2022-08-01T12:23:09.224Z,36.67
2022-08-01T12:25:37.019Z,36.34
2022-08-01T12:28:09.608Z,36.39
2022-08-01T12:30:42.120Z,36.49
2022-08-01T12:33:11.563Z,36.55
2022-08-01T12:35:41.987Z,36.52
2022-08-01T12:38:18.755Z,36.28
2022-08-01T12:40:49.061Z,37.10
2022-08-01T12:43:28.110Z,36.16
2022-08-01T12:46:00.624Z,35.54
2022-08-01T12:48:28.823Z,34.67
2022-08-01T12:51:01.718Z,35.33
2022-08-01T12:53:39.758Z,36.06
2022-08-01T12:56:09.337Z,35.36
2022-08-01T12:58:37.368Z,35.86
2022-08-01T13:01:10.373Z,36.00
2022-08-01T13:03:38.157Z,35.99
2022-08-01T13:06:16.957Z,36.62
2022-08-01T13:08:45.803Z,36.14
2022-08-01T13:11:19.243Z,35.62
2022-08-01T13:13:50.291Z,36.16
2022-08-01T13:16:34.262Z,35.27
2022-08-01T13:19:09.665Z,35.65
2022-08-01T13:21:53.652Z,35.42
2022-08-01T13:24:27.094Z,35.76
2022-08-01T13:27:01.216Z,36.10
2022-08-01T13:29:35.757Z,36.48
2022-08-01T13:32:28.917Z,36.59
2022-08-01T13:35:11.431Z,36.25
2022-08-01T13:37:40.831Z,35.22
2022-08-01T13:40:09.600Z,35.36
2022-08-01T13:42:37.269Z,35.11
2022-08-01T13:45:14.863Z,35.06
2022-08-01T13:48:11.790Z,33.84
2022-08-01T13:50:33.222Z,33.54
2022-08-01T13:53:00.031Z,33.23
2022-08-01T13:55:32.364Z,32.78
2022-08-01T13:58:01.736Z,33.25
2022-08-01T14:00:28.536Z,33.35
2022-08-01T14:02:55.305Z,34.21
2022-08-01T14:05:22.148Z,34.72
2022-08-01T14:07:49.108Z,35.11
2022-08-01T14:10:18.413Z,35.32
2022-08-01T14:12:50.993Z,34.74
2022-08-01T14:15:38.351Z,34.13
2022-08-01T14:18:05.999Z,33.92
2022-08-01T14:20:33.704Z,32.53
2022-08-01T14:23:00.941Z,32.76
2022-08-01T14:26:01.451Z,33.32
2022-08-01T14:28:20.617Z,33.15
2022-08-01T14:30:48.138Z,32.98
2022-08-01T14:33:18.847Z,33.01
2022-08-01T14:36:01.359Z,33.70
2022-08-01T14:38:34.194Z,33.28
2022-08-01T14:41:03.976Z,32.74
2022-08-01T14:43:33.783Z,32.25
2022-08-01T14:46:02.183Z,32.72
2022-08-01T14:48:30.152Z,32.66
2022-08-01T14:50:57.766Z,32.40
2022-08-01T14:53:24.538Z,32.28
2022-08-01T14:55:51.486Z,32.09
2022-08-01T14:58:18.205Z,32.11
2022-08-01T15:00:45.339Z,32.69
2022-08-01T15:03:12.338Z,33.17
2022-08-01T15:05:39.385Z,33.13
2022-08-01T15:08:07.804Z,33.29
2022-08-01T15:10:35.030Z,33.41
2022-08-01T15:13:02.751Z,33.52
2022-08-01T15:15:29.818Z,33.76
2022-08-01T15:17:57.754Z,33.80
2022-08-01T15:20:24.893Z,34.30
2022-08-01T15:22:51.697Z,34.59
2022-08-01T15:25:18.651Z,33.88
2022-08-01T15:27:45.561Z,34.66
2022-08-01T15:30:13.190Z,34.73
2022-08-01T15:32:39.986Z,34.21
2022-08-01T15:35:07.958Z,35.01
2022-08-01T15:37:38.422Z,34.34
2022-08-01T15:40:08.237Z,33.83
2022-08-01T15:42:36.016Z,33.98
2022-08-01T15:45:02.818Z,34.07
2022-08-01T15:47:30.979Z,34.20
2022-08-01T15:50:00.682Z,33.65
2022-08-01T15:52:31.497Z,34.13
2022-08-01T15:54:58.887Z,34.00
2022-08-01T15:57:25.799Z,33.56
2022-08-01T15:59:52.587Z,33.59
2022-08-01T16:02:19.820Z,34.11
2022-08-01T16:04:46.588Z,34.04
2022-08-01T16:07:13.367Z,33.28
2022-08-01T16:09:40.327Z,32.80
2022-08-01T16:12:07.710Z,33.34
2022-08-01T16:14:34.770Z,33.11
2022-08-01T16:17:01.570Z,33.79
2022-08-01T16:19:28.398Z,33.69
2022-08-01T16:21:55.300Z,33.25
2022-08-01T16:24:22.293Z,33.07
2022-08-01T16:26:49.094Z,32.49
2022-08-01T16:29:16.127Z,33.05
2022-08-01T16:31:55.786Z,33.25
2022-08-01T16:34:26.667Z,32.94
2022-08-01T16:36:55.589Z,32.50
2022-08-01T16:39:23.649Z,33.17
2022-08-01T16:41:55.066Z,32.85
2022-08-01T16:44:33.310Z,32.50
2022-08-01T16:47:02.336Z,32.91
2022-08-01T16:49:29.237Z,32.16
2022-08-01T16:51:56.055Z,32.42
2022-08-01T16:54:25.119Z,32.54
2022-08-01T16:56:56.165Z,32.55
2022-08-01T16:59:34.395Z,32.27
2022-08-01T17:02:08.143Z,32.51
2022-08-01T17:04:35.016Z,31.44
2022-08-01T17:07:02.310Z,31.94
2022-08-01T17:09:29.945Z,32.04
2022-08-01T17:11:56.918Z,31.19
2022-08-01T17:14:23.831Z,31.00
2022-08-01T17:16:50.637Z,30.77
2022-08-01T17:19:17.441Z,30.52
2022-08-01T17:21:44.209Z,30.84
2022-08-01T17:24:14.847Z,30.90
2022-08-01T17:26:43.581Z,31.56
2022-08-01T17:29:10.387Z,31.06
2022-08-01T17:31:37.257Z,31.41
2022-08-01T17:34:04.135Z,31.28
2022-08-01T17:36:30.976Z,31.18
2022-08-01T17:38:59.885Z,31.07
2022-08-01T17:41:26.816Z,31.23
2022-08-01T17:43:53.630Z,30.84
2022-08-01T17:46:20.702Z,31.16
2022-08-01T17:48:47.543Z,31.21
2022-08-01T17:51:18.095Z,30.86
2022-08-01T17:53:56.135Z,31.13
2022-08-01T17:56:24.597Z,31.33
2022-08-01T17:58:52.368Z,31.21
2022-08-01T18:01:19.869Z,31.33
2022-08-01T18:03:47.586Z,31.37
2022-08-01T18:06:19.019Z,31.30
2022-08-01T18:08:47.886Z,31.39
2022-08-01T18:11:16.427Z,31.10
2022-08-01T18:13:44.167Z,31.21
2022-08-01T18:16:13.355Z,31.11
2022-08-01T18:18:41.977Z,31.22
2022-08-01T18:21:08.870Z,31.35
2022-08-01T18:23:35.843Z,31.27
2022-08-01T18:26:07.100Z,31.32
2022-08-01T18:28:41.590Z,31.39
2022-08-01T18:31:09.796Z,31.16
2022-08-01T18:33:36.695Z,31.13
2022-08-01T18:36:04.619Z,31.15
2022-08-01T18:38:35.230Z,31.12
2022-08-01T18:41:05.336Z,31.03
2022-08-01T18:43:33.778Z,31.02
2022-08-01T18:46:02.222Z,30.98
2022-08-01T18:48:30.038Z,30.97
2022-08-01T18:50:56.824Z,30.96
2022-08-01T18:53:25.306Z,30.90
2022-08-01T18:55:52.216Z,30.76
2022-08-01T18:58:19.338Z,30.74
2022-08-01T19:00:46.298Z,30.61
2022-08-01T19:03:13.898Z,30.68
2022-08-01T19:05:40.790Z,30.50
2022-08-01T19:08:08.325Z,30.50
2022-08-01T19:10:36.767Z,30.36
2022-08-01T19:13:04.194Z,30.46
2022-08-01T19:15:31.378Z,30.41
2022-08-01T19:17:58.366Z,30.43
2022-08-01T19:20:25.956Z,30.09
2022-08-01T19:22:52.847Z,29.35
2022-08-01T19:25:19.825Z,29.30
2022-08-01T19:27:50.697Z,29.26
2022-08-01T19:30:19.337Z,28.92
2022-08-01T19:32:49.058Z,28.80
2022-08-01T19:35:17.375Z,28.90
2022-08-01T19:37:47.463Z,28.84
2022-08-01T19:40:26.095Z,28.64
2022-08-01T19:42:55.337Z,28.76
2022-08-01T19:45:22.807Z,28.82
2022-08-01T19:47:57.220Z,28.68
2022-08-01T19:50:26.586Z,28.42
2022-08-01T19:52:55.761Z,28.24
2022-08-01T19:55:25.400Z,28.15
2022-08-01T20:00:41.187Z,27.82
2022-08-01T20:03:09.265Z,27.44
2022-08-01T20:05:37.435Z,27.56
2022-08-01T20:08:06.736Z,27.54
2022-08-01T20:10:34.477Z,27.25
2022-08-01T20:13:02.466Z,27.43
2022-08-01T20:15:30.384Z,27.56
2022-08-01T20:18:01.168Z,27.51
2022-08-01T20:20:28.125Z,27.60
2022-08-01T20:22:57.666Z,27.59
2022-08-01T20:25:39.623Z,27.61
2022-08-01T20:28:09.860Z,27.54
2022-08-01T20:30:36.822Z,27.51
2022-08-01T20:33:06.504Z,27.58
2022-08-01T20:35:51.005Z,27.46
2022-08-01T20:38:24.823Z,27.43
2022-08-01T20:40:58.847Z,27.30
2022-08-01T20:43:27.803Z,27.29
2022-08-01T20:45:56.147Z,26.93
2022-08-01T20:48:25.507Z,26.93
2022-08-01T20:51:11.575Z,26.89
2022-08-01T20:53:42.819Z,26.86
2022-08-01T20:56:15.383Z,26.80
2022-08-01T20:58:58.316Z,26.79
2022-08-01T21:01:29.619Z,26.81
2022-08-01T21:04:17.739Z,26.95
2022-08-01T21:06:53.912Z,26.72
2022-08-01T21:09:24.145Z,26.60
2022-08-01T21:12:01.280Z,26.48
2022-08-01T21:14:50.528Z,26.14
2022-08-01T21:17:39.907Z,25.91
2022-08-01T21:20:09.006Z,25.72
2022-08-01T21:22:57.106Z,25.77
2022-08-01T21:25:29.017Z,25.92
2022-08-01T21:27:56.526Z,25.78
2022-08-01T21:30:25.551Z,25.75
2022-08-01T21:32:52.926Z,25.61
2022-08-01T21:35:23.125Z,25.80
2022-08-01T21:37:52.536Z,25.25
2022-08-01T21:40:21.677Z,25.32
2022-08-01T21:42:50.313Z,24.82
2022-08-01T21:45:20.903Z,24.81
2022-08-01T21:47:49.580Z,25.03
2022-08-01T21:50:16.425Z,24.92
2022-08-01T21:52:47.007Z,25.11
2022-08-01T21:55:52.485Z,25.34
2022-08-01T21:58:38.557Z,25.05
2022-08-01T22:01:13.727Z,24.89
2022-08-01T22:03:47.986Z,24.62
2022-08-01T22:06:16.744Z,24.63
2022-08-01T22:08:50.899Z,24.78
2022-08-01T22:11:28.530Z,24.69
2022-08-01T22:13:58.238Z,24.74
2022-08-01T22:16:26.979Z,24.87
2022-08-01T22:18:54.323Z,24.91
2022-08-01T22:21:21.219Z,24.73
2022-08-01T22:23:50.527Z,24.66
2022-08-01T22:26:18.267Z,24.61
2022-08-01T22:28:45.117Z,24.67
2022-08-01T22:31:16.340Z,24.68
2022-08-01T22:33:43.098Z,24.33
2022-08-01T22:36:09.834Z,24.34
2022-08-01T22:38:36.847Z,24.05
2022-08-01T22:41:06.901Z,24.08
2022-08-01T22:43:42.498Z,24.09
2022-08-01T22:46:16.047Z,23.97
2022-08-01T22:49:09.112Z,23.85
2022-08-01T22:51:55.228Z,24.06
2022-08-01T22:54:30.061Z,24.02
2022-08-01T22:57:01.458Z,23.93
2022-08-01T22:59:57.945Z,24.18
2022-08-01T23:02:27.998Z,24.05
2022-08-01T23:05:01.543Z,24.05
2022-08-01T23:07:39.828Z,24.07
2022-08-01T23:10:07.959Z,23.83
2022-08-01T23:12:35.117Z,23.70
2022-08-01T23:15:02.233Z,23.84
2022-08-01T23:17:30.950Z,24.09
2022-08-01T23:20:00.941Z,24.05
2022-08-01T23:22:31.602Z,23.66
2022-08-01T23:25:05.028Z,23.66
2022-08-01T23:27:51.540Z,23.55
2022-08-01T23:30:27.179Z,23.22
2022-08-01T23:32:54.945Z,23.31
2022-08-01T23:35:22.004Z,23.27
2022-08-01T23:37:51.273Z,23.32
2022-08-01T23:40:18.667Z,23.39
2022-08-01T23:42:45.783Z,23.15
2022-08-01T23:45:12.717Z,23.04
2022-08-01T23:47:39.802Z,23.10
2022-08-01T23:50:07.903Z,23.15
2022-08-01T23:52:36.782Z,22.67
2022-08-01T23:55:15.863Z,22.41
2022-08-01T23:57:43.299Z,22.50
